sensor_id;sensor_type;location;lat;lon;timestamp;temperature;humidity
27162;DHT22;54464;50.558;9.704;2022-08-30T00:01:55;16.40;95.70
27162;DHT22;54464;50.558;9.704;2022-08-30T00:04:21;16.40;95.80
27162;DHT22;54464;50.558;9.704;2022-08-30T00:06:47;16.40;95.90
27162;DHT22;54464;50.558;9.704;2022-08-30T00:09:13;16.30;95.80
27162;DHT22;54464;50.558;9.704;2022-08-30T00:11:39;16.40;95.70
27162;DHT22;54464;50.558;9.704;2022-08-30T00:14:04;16.30;95.80
27162;DHT22;54464;50.558;9.704;2022-08-30T00:16:31;16.30;95.80
27162;DHT22;54464;50.558;9.704;2022-08-30T00:18:57;16.30;95.80
27162;DHT22;54464;50.558;9.704;2022-08-30T00:21:23;16.20;96.10
27162;DHT22;54464;50.558;9.704;2022-08-30T00:23:49;16.20;96.10
27162;DHT22;54464;50.558;9.704;2022-08-30T00:26:14;16.10;96.30
27162;DHT22;54464;50.558;9.704;2022-08-30T00:28:40;16.00;96.30
27162;DHT22;54464;50.558;9.704;2022-08-30T00:31:06;16.00;96.20
27162;DHT22;54464;50.558;9.704;2022-08-30T00:33:32;16.00;96.30
27162;DHT22;54464;50.558;9.704;2022-08-30T00:35:57;16.00;96.50
27162;DHT22;54464;50.558;9.704;2022-08-30T00:38:23;15.80;96.80
27162;DHT22;54464;50.558;9.704;2022-08-30T00:40:49;15.90;96.90
27162;DHT22;54464;50.558;9.704;2022-08-30T00:43:19;15.90;96.80
27162;DHT22;54464;50.558;9.704;2022-08-30T00:45:48;15.80;96.90
27162;DHT22;54464;50.558;9.704;2022-08-30T00:48:13;15.80;97.00
27162;DHT22;54464;50.558;9.704;2022-08-30T00:50:43;15.60;97.20
27162;DHT22;54464;50.558;9.704;2022-08-30T00:53:14;15.50;97.60
27162;DHT22;54464;50.558;9.704;2022-08-30T00:55:42;15.40;97.70
27162;DHT22;54464;50.558;9.704;2022-08-30T00:58:13;15.40;97.70
27162;DHT22;54464;50.558;9.704;2022-08-30T01:00:41;15.50;97.60
27162;DHT22;54464;50.558;9.704;2022-08-30T01:03:07;15.50;97.60
27162;DHT22;54464;50.558;9.704;2022-08-30T01:05:35;15.50;97.80
27162;DHT22;54464;50.558;9.704;2022-08-30T01:08:03;15.50;97.80
27162;DHT22;54464;50.558;9.704;2022-08-30T01:10:29;15.40;97.70
27162;DHT22;54464;50.558;9.704;2022-08-30T01:12:55;15.40;97.90
27162;DHT22;54464;50.558;9.704;2022-08-30T01:15:21;15.40;97.90
27162;DHT22;54464;50.558;9.704;2022-08-30T01:17:47;15.40;98.00
27162;DHT22;54464;50.558;9.704;2022-08-30T01:20:19;15.30;98.10
27162;DHT22;54464;50.558;9.704;2022-08-30T01:25:21;15.10;98.60
27162;DHT22;54464;50.558;9.704;2022-08-30T01:27:53;15.10;98.80
27162;DHT22;54464;50.558;9.704;2022-08-30T01:30:20;15.20;98.30
27162;DHT22;54464;50.558;9.704;2022-08-30T01:32:47;15.10;98.10
27162;DHT22;54464;50.558;9.704;2022-08-30T01:35:17;15.10;98.10
27162;DHT22;54464;50.558;9.704;2022-08-30T01:37:44;15.00;98.30
27162;DHT22;54464;50.558;9.704;2022-08-30T01:40:11;14.90;98.60
27162;DHT22;54464;50.558;9.704;2022-08-30T01:42:37;14.90;98.60
27162;DHT22;54464;50.558;9.704;2022-08-30T01:45:04;14.90;98.60
27162;DHT22;54464;50.558;9.704;2022-08-30T01:47:30;14.80;98.80
27162;DHT22;54464;50.558;9.704;2022-08-30T01:49:55;14.90;98.50
27162;DHT22;54464;50.558;9.704;2022-08-30T01:52:23;14.90;98.70
27162;DHT22;54464;50.558;9.704;2022-08-30T01:54:49;14.70;98.80
27162;DHT22;54464;50.558;9.704;2022-08-30T01:57:18;14.60;99.10
27162;DHT22;54464;50.558;9.704;2022-08-30T01:59:46;14.50;99.20
27162;DHT22;54464;50.558;9.704;2022-08-30T02:02:16;14.50;99.10
27162;DHT22;54464;50.558;9.704;2022-08-30T02:04:42;14.50;99.20
27162;DHT22;54464;50.558;9.704;2022-08-30T02:07:09;14.50;99.30
27162;DHT22;54464;50.558;9.704;2022-08-30T02:09:35;14.40;99.40
27162;DHT22;54464;50.558;9.704;2022-08-30T02:12:03;14.40;99.70
27162;DHT22;54464;50.558;9.704;2022-08-30T02:14:30;14.30;99.90
27162;DHT22;54464;50.558;9.704;2022-08-30T02:16:56;14.30;99.80
27162;DHT22;54464;50.558;9.704;2022-08-30T02:19:22;14.40;99.60
27162;DHT22;54464;50.558;9.704;2022-08-30T02:21:48;14.30;99.60
27162;DHT22;54464;50.558;9.704;2022-08-30T02:24:13;14.30;99.80
27162;DHT22;54464;50.558;9.704;2022-08-30T02:26:39;14.20;99.90
27162;DHT22;54464;50.558;9.704;2022-08-30T02:29:05;14.20;99.90
27162;DHT22;54464;50.558;9.704;2022-08-30T02:31:31;14.20;99.90
27162;DHT22;54464;50.558;9.704;2022-08-30T02:33:57;14.10;99.90
27162;DHT22;54464;50.558;9.704;2022-08-30T02:36:23;14.10;99.90
27162;DHT22;54464;50.558;9.704;2022-08-30T02:38:49;14.00;99.90
27162;DHT22;54464;50.558;9.704;2022-08-30T02:41:15;14.00;99.90
27162;DHT22;54464;50.558;9.704;2022-08-30T02:43:41;14.00;99.90
27162;DHT22;54464;50.558;9.704;2022-08-30T02:46:07;14.10;99.90
27162;DHT22;54464;50.558;9.704;2022-08-30T02:48:33;14.10;99.90
27162;DHT22;54464;50.558;9.704;2022-08-30T02:51:05;14.10;99.90
27162;DHT22;54464;50.558;9.704;2022-08-30T02:53:31;14.10;99.90
27162;DHT22;54464;50.558;9.704;2022-08-30T02:55:57;14.00;99.90
27162;DHT22;54464;50.558;9.704;2022-08-30T02:58:23;14.00;99.90
27162;DHT22;54464;50.558;9.704;2022-08-30T03:00:49;14.00;99.90
27162;DHT22;54464;50.558;9.704;2022-08-30T03:03:15;14.00;99.90
27162;DHT22;54464;50.558;9.704;2022-08-30T03:05:41;14.00;99.90
27162;DHT22;54464;50.558;9.704;2022-08-30T03:08:07;14.00;99.90
27162;DHT22;54464;50.558;9.704;2022-08-30T03:10:33;14.00;99.90
27162;DHT22;54464;50.558;9.704;2022-08-30T03:12:59;14.00;99.90
27162;DHT22;54464;50.558;9.704;2022-08-30T03:15:25;14.00;99.90
27162;DHT22;54464;50.558;9.704;2022-08-30T03:17:53;14.00;99.90
27162;DHT22;54464;50.558;9.704;2022-08-30T03:20:19;13.90;99.90
27162;DHT22;54464;50.558;9.704;2022-08-30T03:22:45;13.80;99.90
27162;DHT22;54464;50.558;9.704;2022-08-30T03:25:12;13.80;99.90
27162;DHT22;54464;50.558;9.704;2022-08-30T03:27:37;13.80;99.90
27162;DHT22;54464;50.558;9.704;2022-08-30T03:30:04;13.80;99.90
27162;DHT22;54464;50.558;9.704;2022-08-30T03:32:30;13.70;99.90
27162;DHT22;54464;50.558;9.704;2022-08-30T03:34:55;13.70;99.90
27162;DHT22;54464;50.558;9.704;2022-08-30T03:37:21;13.60;99.90
27162;DHT22;54464;50.558;9.704;2022-08-30T03:39:47;13.50;99.90
27162;DHT22;54464;50.558;9.704;2022-08-30T03:42:13;13.50;99.90
27162;DHT22;54464;50.558;9.704;2022-08-30T03:44:39;13.50;99.90
27162;DHT22;54464;50.558;9.704;2022-08-30T03:47:05;13.50;99.90
27162;DHT22;54464;50.558;9.704;2022-08-30T03:49:31;13.60;99.90
27162;DHT22;54464;50.558;9.704;2022-08-30T03:51:57;13.70;99.90
27162;DHT22;54464;50.558;9.704;2022-08-30T03:54:23;13.70;99.90
27162;DHT22;54464;50.558;9.704;2022-08-30T03:56:49;13.60;99.90
27162;DHT22;54464;50.558;9.704;2022-08-30T03:59:14;13.60;99.90
27162;DHT22;54464;50.558;9.704;2022-08-30T04:01:40;13.60;99.90
27162;DHT22;54464;50.558;9.704;2022-08-30T04:04:07;13.50;99.90
27162;DHT22;54464;50.558;9.704;2022-08-30T04:06:33;13.40;99.90
27162;DHT22;54464;50.558;9.704;2022-08-30T04:08:59;13.40;99.90
27162;DHT22;54464;50.558;9.704;2022-08-30T04:11:25;13.30;99.90
27162;DHT22;54464;50.558;9.704;2022-08-30T04:13:50;13.30;99.90
27162;DHT22;54464;50.558;9.704;2022-08-30T04:16:18;13.30;99.90
27162;DHT22;54464;50.558;9.704;2022-08-30T04:18:44;13.20;99.90
27162;DHT22;54464;50.558;9.704;2022-08-30T04:21:10;13.20;99.90
27162;DHT22;54464;50.558;9.704;2022-08-30T04:23:35;13.00;99.90
27162;DHT22;54464;50.558;9.704;2022-08-30T04:26:01;13.10;99.90
27162;DHT22;54464;50.558;9.704;2022-08-30T04:28:27;13.20;99.90
27162;DHT22;54464;50.558;9.704;2022-08-30T04:30:53;13.10;99.90
27162;DHT22;54464;50.558;9.704;2022-08-30T04:33:19;13.00;99.90
27162;DHT22;54464;50.558;9.704;2022-08-30T04:35:47;13.00;99.90
27162;DHT22;54464;50.558;9.704;2022-08-30T04:38:14;13.10;99.90
27162;DHT22;54464;50.558;9.704;2022-08-30T04:40:45;13.10;99.90
27162;DHT22;54464;50.558;9.704;2022-08-30T04:43:13;13.10;99.90
27162;DHT22;54464;50.558;9.704;2022-08-30T04:45:39;13.10;99.90
27162;DHT22;54464;50.558;9.704;2022-08-30T04:48:06;13.00;99.90
27162;DHT22;54464;50.558;9.704;2022-08-30T04:50:31;13.00;99.90
27162;DHT22;54464;50.558;9.704;2022-08-30T04:52:57;13.10;99.90
27162;DHT22;54464;50.558;9.704;2022-08-30T04:55:23;13.10;99.90
27162;DHT22;54464;50.558;9.704;2022-08-30T04:57:52;13.10;99.90
27162;DHT22;54464;50.558;9.704;2022-08-30T05:00:19;13.00;99.90
27162;DHT22;54464;50.558;9.704;2022-08-30T05:02:47;12.90;99.90
27162;DHT22;54464;50.558;9.704;2022-08-30T05:05:13;12.90;99.90
27162;DHT22;54464;50.558;9.704;2022-08-30T05:07:58;12.90;99.90
27162;DHT22;54464;50.558;9.704;2022-08-30T05:10:24;13.00;99.90
27162;DHT22;54464;50.558;9.704;2022-08-30T05:12:52;13.00;99.90
27162;DHT22;54464;50.558;9.704;2022-08-30T05:15:18;13.10;99.90
27162;DHT22;54464;50.558;9.704;2022-08-30T05:17:44;13.10;99.90
27162;DHT22;54464;50.558;9.704;2022-08-30T05:20:11;13.10;99.90
27162;DHT22;54464;50.558;9.704;2022-08-30T05:22:38;13.10;99.90
27162;DHT22;54464;50.558;9.704;2022-08-30T05:25:05;13.20;99.90
27162;DHT22;54464;50.558;9.704;2022-08-30T05:27:31;13.30;99.90
27162;DHT22;54464;50.558;9.704;2022-08-30T05:29:57;13.30;99.90
27162;DHT22;54464;50.558;9.704;2022-08-30T05:32:23;13.30;99.90
27162;DHT22;54464;50.558;9.704;2022-08-30T05:34:49;13.30;99.90
27162;DHT22;54464;50.558;9.704;2022-08-30T05:37:15;13.20;99.90
27162;DHT22;54464;50.558;9.704;2022-08-30T05:39:40;13.20;99.90
27162;DHT22;54464;50.558;9.704;2022-08-30T05:42:06;13.20;99.90
27162;DHT22;54464;50.558;9.704;2022-08-30T05:44:32;13.20;99.90
27162;DHT22;54464;50.558;9.704;2022-08-30T05:46:57;13.20;99.90
27162;DHT22;54464;50.558;9.704;2022-08-30T05:49:23;13.20;99.90
27162;DHT22;54464;50.558;9.704;2022-08-30T05:51:49;13.20;99.90
27162;DHT22;54464;50.558;9.704;2022-08-30T05:54:15;13.20;99.90
27162;DHT22;54464;50.558;9.704;2022-08-30T05:56:43;13.20;99.90
27162;DHT22;54464;50.558;9.704;2022-08-30T05:59:10;13.30;99.90
27162;DHT22;54464;50.558;9.704;2022-08-30T06:01:39;13.30;99.90
27162;DHT22;54464;50.558;9.704;2022-08-30T06:04:07;13.30;99.90
27162;DHT22;54464;50.558;9.704;2022-08-30T06:06:35;13.40;99.90
27162;DHT22;54464;50.558;9.704;2022-08-30T06:09:05;13.50;99.90
27162;DHT22;54464;50.558;9.704;2022-08-30T06:11:31;13.50;99.90
27162;DHT22;54464;50.558;9.704;2022-08-30T06:13:57;13.50;99.90
27162;DHT22;54464;50.558;9.704;2022-08-30T06:16:25;13.50;99.90
27162;DHT22;54464;50.558;9.704;2022-08-30T06:18:52;13.60;99.90
27162;DHT22;54464;50.558;9.704;2022-08-30T06:21:19;13.70;99.90
27162;DHT22;54464;50.558;9.704;2022-08-30T06:23:45;13.70;99.90
27162;DHT22;54464;50.558;9.704;2022-08-30T06:26:11;13.80;99.90
27162;DHT22;54464;50.558;9.704;2022-08-30T06:28:37;13.90;99.90
27162;DHT22;54464;50.558;9.704;2022-08-30T06:31:08;13.90;99.90
27162;DHT22;54464;50.558;9.704;2022-08-30T06:33:34;14.00;99.90
27162;DHT22;54464;50.558;9.704;2022-08-30T06:36:13;14.00;99.90
27162;DHT22;54464;50.558;9.704;2022-08-30T06:38:39;14.00;99.90
27162;DHT22;54464;50.558;9.704;2022-08-30T06:41:10;14.00;99.90
27162;DHT22;54464;50.558;9.704;2022-08-30T06:43:36;14.00;99.90
27162;DHT22;54464;50.558;9.704;2022-08-30T06:46:07;14.10;99.90
27162;DHT22;54464;50.558;9.704;2022-08-30T06:48:33;14.30;99.90
27162;DHT22;54464;50.558;9.704;2022-08-30T06:50:59;14.40;99.90
27162;DHT22;54464;50.558;9.704;2022-08-30T06:53:25;14.40;99.90
27162;DHT22;54464;50.558;9.704;2022-08-30T06:56:03;14.40;99.90
27162;DHT22;54464;50.558;9.704;2022-08-30T06:58:31;14.50;99.90
27162;DHT22;54464;50.558;9.704;2022-08-30T07:00:57;14.50;99.90
27162;DHT22;54464;50.558;9.704;2022-08-30T07:03:23;14.60;99.90
27162;DHT22;54464;50.558;9.704;2022-08-30T07:05:52;14.60;99.90
27162;DHT22;54464;50.558;9.704;2022-08-30T07:08:17;14.70;99.90
27162;DHT22;54464;50.558;9.704;2022-08-30T07:10:43;14.80;99.90
27162;DHT22;54464;50.558;9.704;2022-08-30T07:13:09;14.90;99.90
27162;DHT22;54464;50.558;9.704;2022-08-30T07:15:35;14.90;99.90
27162;DHT22;54464;50.558;9.704;2022-08-30T07:18:01;15.00;99.90
27162;DHT22;54464;50.558;9.704;2022-08-30T07:20:46;15.10;99.90
27162;DHT22;54464;50.558;9.704;2022-08-30T07:23:12;15.10;99.90
27162;DHT22;54464;50.558;9.704;2022-08-30T07:25:39;15.20;99.90
27162;DHT22;54464;50.558;9.704;2022-08-30T07:28:05;15.30;99.90
27162;DHT22;54464;50.558;9.704;2022-08-30T07:30:32;15.30;99.90
27162;DHT22;54464;50.558;9.704;2022-08-30T07:32:58;15.40;99.90
27162;DHT22;54464;50.558;9.704;2022-08-30T07:35:24;15.50;99.90
27162;DHT22;54464;50.558;9.704;2022-08-30T07:37:50;15.60;99.90
27162;DHT22;54464;50.558;9.704;2022-08-30T07:40:15;15.70;99.90
27162;DHT22;54464;50.558;9.704;2022-08-30T07:42:41;15.70;99.90
27162;DHT22;54464;50.558;9.704;2022-08-30T07:45:08;15.70;99.90
27162;DHT22;54464;50.558;9.704;2022-08-30T07:47:35;15.90;99.90
27162;DHT22;54464;50.558;9.704;2022-08-30T07:50:02;16.10;99.90
27162;DHT22;54464;50.558;9.704;2022-08-30T07:52:29;16.20;99.80
27162;DHT22;54464;50.558;9.704;2022-08-30T07:54:55;16.30;99.70
27162;DHT22;54464;50.558;9.704;2022-08-30T07:57:22;16.40;99.60
27162;DHT22;54464;50.558;9.704;2022-08-30T07:59:48;16.50;99.60
27162;DHT22;54464;50.558;9.704;2022-08-30T08:02:13;16.50;99.60
27162;DHT22;54464;50.558;9.704;2022-08-30T08:04:39;16.50;99.70
27162;DHT22;54464;50.558;9.704;2022-08-30T08:07:05;16.50;99.60
27162;DHT22;54464;50.558;9.704;2022-08-30T08:09:30;16.60;99.70
27162;DHT22;54464;50.558;9.704;2022-08-30T08:11:58;16.60;99.50
27162;DHT22;54464;50.558;9.704;2022-08-30T08:14:24;16.70;99.40
27162;DHT22;54464;50.558;9.704;2022-08-30T08:16:50;16.80;99.40
27162;DHT22;54464;50.558;9.704;2022-08-30T08:19:16;17.00;99.20
27162;DHT22;54464;50.558;9.704;2022-08-30T08:21:44;17.00;99.20
27162;DHT22;54464;50.558;9.704;2022-08-30T08:24:12;17.10;99.40
27162;DHT22;54464;50.558;9.704;2022-08-30T08:26:38;17.20;98.70
27162;DHT22;54464;50.558;9.704;2022-08-30T08:29:05;17.30;98.80
27162;DHT22;54464;50.558;9.704;2022-08-30T08:31:31;17.30;98.90
27162;DHT22;54464;50.558;9.704;2022-08-30T08:33:58;17.40;98.80
27162;DHT22;54464;50.558;9.704;2022-08-30T08:36:25;17.40;98.60
27162;DHT22;54464;50.558;9.704;2022-08-30T08:38:52;17.50;98.80
27162;DHT22;54464;50.558;9.704;2022-08-30T08:43:53;17.50;98.80
27162;DHT22;54464;50.558;9.704;2022-08-30T08:46:46;17.70;98.50
27162;DHT22;54464;50.558;9.704;2022-08-30T08:49:14;17.80;98.30
27162;DHT22;54464;50.558;9.704;2022-08-30T08:51:51;17.90;98.20
27162;DHT22;54464;50.558;9.704;2022-08-30T08:54:50;18.00;98.40
27162;DHT22;54464;50.558;9.704;2022-08-30T08:57:17;18.10;98.30
27162;DHT22;54464;50.558;9.704;2022-08-30T08:59:43;18.20;98.00
27162;DHT22;54464;50.558;9.704;2022-08-30T09:02:28;18.30;98.20
27162;DHT22;54464;50.558;9.704;2022-08-30T09:04:57;18.50;97.10
27162;DHT22;54464;50.558;9.704;2022-08-30T09:07:28;18.70;96.70
27162;DHT22;54464;50.558;9.704;2022-08-30T09:09:56;18.90;96.40
27162;DHT22;54464;50.558;9.704;2022-08-30T09:12:22;19.10;96.40
27162;DHT22;54464;50.558;9.704;2022-08-30T09:14:54;19.30;96.30
27162;DHT22;54464;50.558;9.704;2022-08-30T09:17:21;19.30;96.10
27162;DHT22;54464;50.558;9.704;2022-08-30T09:22:39;19.70;95.60
27162;DHT22;54464;50.558;9.704;2022-08-30T09:30:29;20.30;94.40
27162;DHT22;54464;50.558;9.704;2022-08-30T09:37:55;20.90;92.50
27162;DHT22;54464;50.558;9.704;2022-08-30T09:40:37;21.10;93.00
27162;DHT22;54464;50.558;9.704;2022-08-30T09:43:10;21.10;92.90
27162;DHT22;54464;50.558;9.704;2022-08-30T09:51:45;21.80;91.50
27162;DHT22;54464;50.558;9.704;2022-08-30T09:54:32;21.90;90.70
27162;DHT22;54464;50.558;9.704;2022-08-30T09:59:41;22.30;88.80
27162;DHT22;54464;50.558;9.704;2022-08-30T10:04:46;22.80;85.70
27162;DHT22;54464;50.558;9.704;2022-08-30T10:07:15;23.10;84.80
27162;DHT22;54464;50.558;9.704;2022-08-30T10:13:04;23.60;84.20
27162;DHT22;54464;50.558;9.704;2022-08-30T10:15:42;23.90;82.30
27162;DHT22;54464;50.558;9.704;2022-08-30T10:18:24;24.10;80.60
27162;DHT22;54464;50.558;9.704;2022-08-30T10:21:10;24.30;80.30
27162;DHT22;54464;50.558;9.704;2022-08-30T10:23:43;24.50;80.10
27162;DHT22;54464;50.558;9.704;2022-08-30T10:26:29;24.70;78.60
27162;DHT22;54464;50.558;9.704;2022-08-30T10:29:02;24.80;79.20
27162;DHT22;54464;50.558;9.704;2022-08-30T10:31:49;25.00;79.80
27162;DHT22;54464;50.558;9.704;2022-08-30T10:34:34;25.10;77.40
27162;DHT22;54464;50.558;9.704;2022-08-30T10:37:04;25.10;77.70
27162;DHT22;54464;50.558;9.704;2022-08-30T10:39:40;24.90;78.90
27162;DHT22;54464;50.558;9.704;2022-08-30T10:44:48;24.80;75.80
27162;DHT22;54464;50.558;9.704;2022-08-30T10:50:19;24.60;77.40
27162;DHT22;54464;50.558;9.704;2022-08-30T10:53:01;24.50;77.60
27162;DHT22;54464;50.558;9.704;2022-08-30T10:55:32;24.30;77.90
27162;DHT22;54464;50.558;9.704;2022-08-30T10:58:00;24.40;78.20
27162;DHT22;54464;50.558;9.704;2022-08-30T11:00:30;24.70;78.60
27162;DHT22;54464;50.558;9.704;2022-08-30T11:06:30;25.10;75.00
27162;DHT22;54464;50.558;9.704;2022-08-30T11:14:43;25.60;72.30
27162;DHT22;54464;50.558;9.704;2022-08-30T11:17:52;25.70;71.90
27162;DHT22;54464;50.558;9.704;2022-08-30T11:20:29;25.50;72.70
27162;DHT22;54464;50.558;9.704;2022-08-30T11:25:50;25.60;75.20
27162;DHT22;54464;50.558;9.704;2022-08-30T11:33:51;26.00;73.00
27162;DHT22;54464;50.558;9.704;2022-08-30T11:39:07;26.20;71.10
27162;DHT22;54464;50.558;9.704;2022-08-30T11:41:42;26.50;72.50
27162;DHT22;54464;50.558;9.704;2022-08-30T11:46:48;26.90;71.10
27162;DHT22;54464;50.558;9.704;2022-08-30T11:52:00;27.00;71.10
27162;DHT22;54464;50.558;9.704;2022-08-30T12:00:31;27.30;70.50
27162;DHT22;54464;50.558;9.704;2022-08-30T12:03:04;27.40;69.40
27162;DHT22;54464;50.558;9.704;2022-08-30T12:10:59;27.80;69.80
27162;DHT22;54464;50.558;9.704;2022-08-30T12:16:10;28.10;69.10
27162;DHT22;54464;50.558;9.704;2022-08-30T12:18:44;27.90;68.50
27162;DHT22;54464;50.558;9.704;2022-08-30T12:21:23;28.00;68.10
27162;DHT22;54464;50.558;9.704;2022-08-30T12:26:44;28.20;67.60
27162;DHT22;54464;50.558;9.704;2022-08-30T12:37:09;28.30;68.10
27162;DHT22;54464;50.558;9.704;2022-08-30T12:39:41;28.20;67.70
27162;DHT22;54464;50.558;9.704;2022-08-30T12:44:46;28.10;68.50
27162;DHT22;54464;50.558;9.704;2022-08-30T12:47:15;28.20;66.90
27162;DHT22;54464;50.558;9.704;2022-08-30T12:49:43;28.20;68.00
27162;DHT22;54464;50.558;9.704;2022-08-30T12:54:45;28.20;68.40
27162;DHT22;54464;50.558;9.704;2022-08-30T12:57:11;28.40;68.10
27162;DHT22;54464;50.558;9.704;2022-08-30T12:59:52;28.70;67.40
27162;DHT22;54464;50.558;9.704;2022-08-30T13:02:26;28.60;66.80
27162;DHT22;54464;50.558;9.704;2022-08-30T13:04:55;28.20;66.50
27162;DHT22;54464;50.558;9.704;2022-08-30T13:07:25;28.10;67.40
27162;DHT22;54464;50.558;9.704;2022-08-30T13:09:59;28.10;66.80
27162;DHT22;54464;50.558;9.704;2022-08-30T13:12:27;28.10;68.00
27162;DHT22;54464;50.558;9.704;2022-08-30T13:15:27;28.70;66.00
27162;DHT22;54464;50.558;9.704;2022-08-30T13:20:37;29.30;65.00
27162;DHT22;54464;50.558;9.704;2022-08-30T13:23:07;29.30;63.40
27162;DHT22;54464;50.558;9.704;2022-08-30T13:25:34;29.30;65.00
27162;DHT22;54464;50.558;9.704;2022-08-30T13:28:01;29.80;63.60
27162;DHT22;54464;50.558;9.704;2022-08-30T13:30:28;30.10;63.10
27162;DHT22;54464;50.558;9.704;2022-08-30T13:32:55;29.40;63.50
27162;DHT22;54464;50.558;9.704;2022-08-30T13:35:20;29.30;64.00
27162;DHT22;54464;50.558;9.704;2022-08-30T13:37:46;29.10;64.00
27162;DHT22;54464;50.558;9.704;2022-08-30T13:40:13;29.00;65.20
27162;DHT22;54464;50.558;9.704;2022-08-30T13:42:39;29.00;64.70
27162;DHT22;54464;50.558;9.704;2022-08-30T13:45:08;29.00;65.30
27162;DHT22;54464;50.558;9.704;2022-08-30T13:47:34;29.10;64.30
27162;DHT22;54464;50.558;9.704;2022-08-30T13:50:00;29.20;64.00
27162;DHT22;54464;50.558;9.704;2022-08-30T13:52:25;29.00;65.20
27162;DHT22;54464;50.558;9.704;2022-08-30T13:54:53;29.00;64.80
27162;DHT22;54464;50.558;9.704;2022-08-30T13:57:22;28.90;64.70
27162;DHT22;54464;50.558;9.704;2022-08-30T13:59:48;28.80;64.90
27162;DHT22;54464;50.558;9.704;2022-08-30T14:02:13;28.90;65.90
27162;DHT22;54464;50.558;9.704;2022-08-30T14:04:39;28.90;65.70
27162;DHT22;54464;50.558;9.704;2022-08-30T14:07:05;28.80;65.00
27162;DHT22;54464;50.558;9.704;2022-08-30T14:09:31;28.60;65.90
27162;DHT22;54464;50.558;9.704;2022-08-30T14:11:56;28.50;67.30
27162;DHT22;54464;50.558;9.704;2022-08-30T14:14:22;28.60;66.50
27162;DHT22;54464;50.558;9.704;2022-08-30T14:16:49;28.70;65.50
27162;DHT22;54464;50.558;9.704;2022-08-30T14:19:16;28.70;66.10
27162;DHT22;54464;50.558;9.704;2022-08-30T14:21:43;28.90;65.40
27162;DHT22;54464;50.558;9.704;2022-08-30T14:24:09;29.10;64.60
27162;DHT22;54464;50.558;9.704;2022-08-30T14:29:08;29.10;65.10
27162;DHT22;54464;50.558;9.704;2022-08-30T14:31:35;29.10;64.40
27162;DHT22;54464;50.558;9.704;2022-08-30T14:34:01;29.10;65.10
27162;DHT22;54464;50.558;9.704;2022-08-30T14:36:27;29.10;65.00
27162;DHT22;54464;50.558;9.704;2022-08-30T14:38:53;29.10;64.10
27162;DHT22;54464;50.558;9.704;2022-08-30T14:41:19;29.10;63.30
27162;DHT22;54464;50.558;9.704;2022-08-30T14:43:44;29.10;63.60
27162;DHT22;54464;50.558;9.704;2022-08-30T14:46:10;29.00;63.70
27162;DHT22;54464;50.558;9.704;2022-08-30T14:48:37;29.10;64.80
27162;DHT22;54464;50.558;9.704;2022-08-30T14:51:11;29.10;64.80
27162;DHT22;54464;50.558;9.704;2022-08-30T14:53:37;29.00;64.20
27162;DHT22;54464;50.558;9.704;2022-08-30T14:56:11;28.90;64.70
27162;DHT22;54464;50.558;9.704;2022-08-30T14:58:37;28.80;65.20
27162;DHT22;54464;50.558;9.704;2022-08-30T15:01:08;28.70;64.90
27162;DHT22;54464;50.558;9.704;2022-08-30T15:03:35;28.80;66.80
27162;DHT22;54464;50.558;9.704;2022-08-30T15:06:01;28.80;65.30
27162;DHT22;54464;50.558;9.704;2022-08-30T15:08:27;28.80;66.30
27162;DHT22;54464;50.558;9.704;2022-08-30T15:10:52;28.70;65.90
27162;DHT22;54464;50.558;9.704;2022-08-30T15:13:18;28.70;66.30
27162;DHT22;54464;50.558;9.704;2022-08-30T15:15:44;28.80;67.00
27162;DHT22;54464;50.558;9.704;2022-08-30T15:18:10;28.90;65.50
27162;DHT22;54464;50.558;9.704;2022-08-30T15:20:35;28.90;65.40
27162;DHT22;54464;50.558;9.704;2022-08-30T15:23:02;28.90;65.70
27162;DHT22;54464;50.558;9.704;2022-08-30T15:25:28;28.70;65.00
27162;DHT22;54464;50.558;9.704;2022-08-30T15:27:53;28.60;65.10
27162;DHT22;54464;50.558;9.704;2022-08-30T15:30:19;28.40;66.00
27162;DHT22;54464;50.558;9.704;2022-08-30T15:32:45;28.20;65.90
27162;DHT22;54464;50.558;9.704;2022-08-30T15:35:11;28.00;67.00
27162;DHT22;54464;50.558;9.704;2022-08-30T15:37:37;28.00;67.10
27162;DHT22;54464;50.558;9.704;2022-08-30T15:40:04;28.10;67.00
27162;DHT22;54464;50.558;9.704;2022-08-30T15:42:30;28.20;66.40
27162;DHT22;54464;50.558;9.704;2022-08-30T15:44:56;28.20;66.00
27162;DHT22;54464;50.558;9.704;2022-08-30T15:47:23;28.20;65.70
27162;DHT22;54464;50.558;9.704;2022-08-30T15:49:56;28.20;66.20
27162;DHT22;54464;50.558;9.704;2022-08-30T15:52:23;28.20;65.40
27162;DHT22;54464;50.558;9.704;2022-08-30T15:54:49;28.30;66.30
27162;DHT22;54464;50.558;9.704;2022-08-30T15:57:15;28.20;65.70
27162;DHT22;54464;50.558;9.704;2022-08-30T15:59:40;28.20;66.70
27162;DHT22;54464;50.558;9.704;2022-08-30T16:02:06;28.20;66.40
27162;DHT22;54464;50.558;9.704;2022-08-30T16:04:32;28.20;66.20
27162;DHT22;54464;50.558;9.704;2022-08-30T16:06:58;28.20;66.30
27162;DHT22;54464;50.558;9.704;2022-08-30T16:09:24;28.20;67.20
27162;DHT22;54464;50.558;9.704;2022-08-30T16:11:51;28.20;68.30
27162;DHT22;54464;50.558;9.704;2022-08-30T16:14:17;28.40;66.30
27162;DHT22;54464;50.558;9.704;2022-08-30T16:16:43;28.50;65.70
27162;DHT22;54464;50.558;9.704;2022-08-30T16:19:10;28.60;65.40
27162;DHT22;54464;50.558;9.704;2022-08-30T16:21:37;28.60;66.50
27162;DHT22;54464;50.558;9.704;2022-08-30T16:24:05;28.70;65.10
27162;DHT22;54464;50.558;9.704;2022-08-30T16:26:32;28.70;65.20
27162;DHT22;54464;50.558;9.704;2022-08-30T16:29:03;28.70;66.10
27162;DHT22;54464;50.558;9.704;2022-08-30T16:31:30;28.60;66.00
27162;DHT22;54464;50.558;9.704;2022-08-30T16:33:57;28.50;65.40
27162;DHT22;54464;50.558;9.704;2022-08-30T16:36:23;28.30;66.00
27162;DHT22;54464;50.558;9.704;2022-08-30T16:38:49;28.20;66.30
27162;DHT22;54464;50.558;9.704;2022-08-30T16:41:16;28.20;66.10
27162;DHT22;54464;50.558;9.704;2022-08-30T16:43:41;28.20;66.60
27162;DHT22;54464;50.558;9.704;2022-08-30T16:46:11;28.20;65.90
27162;DHT22;54464;50.558;9.704;2022-08-30T16:48:38;28.00;67.10
27162;DHT22;54464;50.558;9.704;2022-08-30T16:51:06;28.00;67.00
27162;DHT22;54464;50.558;9.704;2022-08-30T16:53:34;27.90;67.20
27162;DHT22;54464;50.558;9.704;2022-08-30T16:56:05;27.90;66.70
27162;DHT22;54464;50.558;9.704;2022-08-30T16:58:31;27.90;66.60
27162;DHT22;54464;50.558;9.704;2022-08-30T17:00:57;27.80;66.50
27162;DHT22;54464;50.558;9.704;2022-08-30T17:03:22;27.70;67.30
27162;DHT22;54464;50.558;9.704;2022-08-30T17:05:48;27.60;67.70
27162;DHT22;54464;50.558;9.704;2022-08-30T17:08:14;27.50;67.90
27162;DHT22;54464;50.558;9.704;2022-08-30T17:10:39;27.40;67.60
27162;DHT22;54464;50.558;9.704;2022-08-30T17:13:06;27.40;68.10
27162;DHT22;54464;50.558;9.704;2022-08-30T17:15:32;27.40;68.40